Time;durP1;ratioP1;P1;durP2;ratioP2;P2;SDS_P1;SDS_P2;PMS_P1;PMS_P2;Temp;Humidity;BMP_temperature;BMP_pressure;BME280_temperature;BME280_humidity;BME280_pressure;Samples;Min_cycle;Max_cycle;Signal;HPM_P1;HPM_P2
2021/12/15 00:01:49;;;;;;;62.65;27.75;;;8.90;99.90;;;;;;5008728;28;20022;-76
2021/12/15 00:04:15;;;;;;;60.63;26.83;;;8.90;99.90;;;;;;5011275;28;20065;-76
2021/12/15 00:06:41;;;;;;;60.40;25.75;;;8.80;99.90;;;;;;5011180;28;20030;-76
2021/12/15 00:09:10;;;;;;;59.42;26.52;;;8.90;99.90;;;;;;5011136;28;20026;-76
2021/12/15 00:11:37;;;;;;;61.00;27.20;;;8.90;99.90;;;;;;4993441;28;20038;-76
2021/12/15 00:14:16;;;;;;;67.57;28.48;;;8.90;99.90;;;;;;5010069;28;20037;-76
2021/12/15 00:16:42;;;;;;;59.90;25.95;;;8.90;99.90;;;;;;5011214;28;20030;-76
2021/12/15 00:19:08;;;;;;;61.17;25.95;;;8.90;99.90;;;;;;5010657;28;20088;-77
2021/12/15 00:21:35;;;;;;;54.33;23.80;;;8.90;99.90;;;;;;4993278;28;20029;-75
2021/12/15 00:24:03;;;;;;;47.50;23.23;;;9.00;99.90;;;;;;4993321;28;20033;-76
2021/12/15 00:26:29;;;;;;;54.85;25.95;;;8.90;99.90;;;;;;5009820;28;20033;-75
2021/12/15 00:28:55;;;;;;;52.75;24.58;;;9.00;99.90;;;;;;5008682;28;20022;-75
2021/12/15 00:31:21;;;;;;;54.67;25.80;;;9.00;99.90;;;;;;5010644;28;20041;-76
2021/12/15 00:33:47;;;;;;;51.00;23.90;;;9.00;99.90;;;;;;5008122;28;20040;-76
2021/12/15 00:36:14;;;;;;;50.55;23.40;;;9.00;99.90;;;;;;5011028;28;20029;-75
2021/12/15 00:38:41;;;;;;;51.83;24.17;;;9.10;99.90;;;;;;5011230;28;20096;-75
2021/12/15 00:41:07;;;;;;;47.63;21.95;;;9.10;99.90;;;;;;5008799;28;20026;-74
2021/12/15 00:43:34;;;;;;;54.53;25.75;;;9.10;99.90;;;;;;5010398;28;20507;-76
2021/12/15 00:46:00;;;;;;;53.67;24.80;;;9.10;99.90;;;;;;4975405;28;20365;-75
2021/12/15 00:48:26;;;;;;;47.03;21.58;;;9.10;99.90;;;;;;5010690;28;20072;-75
2021/12/15 00:50:52;;;;;;;44.92;22.17;;;9.10;99.90;;;;;;4993590;28;20088;-75
2021/12/15 00:53:18;;;;;;;52.70;24.75;;;9.10;99.90;;;;;;5009871;28;20072;-76
2021/12/15 00:55:44;;;;;;;46.70;22.75;;;9.10;99.90;;;;;;5010410;28;20057;-75
2021/12/15 00:58:11;;;;;;;47.05;23.42;;;9.10;99.90;;;;;;5009760;28;20049;-75
2021/12/15 01:00:42;;;;;;;60.42;25.05;;;9.10;99.90;;;;;;5010962;28;20049;-75
2021/12/15 01:03:09;;;;;;;44.30;22.13;;;9.10;99.90;;;;;;5011136;28;20488;-77
2021/12/15 01:05:39;;;;;;;51.40;24.42;;;9.10;99.90;;;;;;4993291;28;20039;-77
2021/12/15 01:08:10;;;;;;;47.95;22.05;;;9.10;99.90;;;;;;5012728;28;20105;-77
2021/12/15 01:22:32;;;;;;;50.03;22.58;;;9.10;99.90;;;;;;4911498;29;20035;-76
2021/12/15 01:25:12;;;;;;;51.33;23.30;;;9.10;99.90;;;;;;4960256;28;20066;-76
2021/12/15 01:27:38;;;;;;;48.25;23.33;;;9.10;99.90;;;;;;4973202;28;20073;-75
2021/12/15 01:30:08;;;;;;;43.88;21.80;;;9.10;99.90;;;;;;4956333;28;20023;-75
2021/12/15 01:32:34;;;;;;;43.00;20.42;;;9.10;99.90;;;;;;4971575;28;20050;-73
2021/12/15 01:35:00;;;;;;;45.85;22.00;;;9.10;99.90;;;;;;4971763;28;20037;-78
2021/12/15 01:37:26;;;;;;;46.67;22.48;;;9.10;99.90;;;;;;4971997;28;20952;-75
2021/12/15 01:39:55;;;;;;;44.05;21.13;;;9.10;99.90;;;;;;4970365;28;20400;-76
2021/12/15 01:42:25;;;;;;;47.10;22.02;;;9.10;99.90;;;;;;4968535;28;20500;-75
2021/12/15 01:47:36;;;;;;;43.63;21.13;;;9.10;99.90;;;;;;5010531;28;20057;-76
2021/12/15 01:50:10;;;;;;;47.78;21.85;;;9.10;99.90;;;;;;5011600;28;20030;-76
2021/12/15 01:52:39;;;;;;;47.60;22.20;;;9.10;99.90;;;;;;4995163;28;20025;-76
2021/12/15 01:55:10;;;;;;;45.17;21.75;;;9.10;99.90;;;;;;4994149;28;20105;-75
2021/12/15 01:57:37;;;;;;;47.88;22.50;;;9.10;99.90;;;;;;5013055;28;20029;-80
2021/12/15 02:00:19;;;;;;;47.78;23.25;;;9.10;99.90;;;;;;4996891;28;20018;-75
2021/12/15 02:02:45;;;;;;;51.42;23.98;;;9.10;99.90;;;;;;5013327;28;20519;-76
2021/12/15 02:05:11;;;;;;;46.13;21.95;;;9.10;99.90;;;;;;5011084;28;20621;-76
2021/12/15 02:07:40;;;;;;;50.20;23.88;;;9.10;99.90;;;;;;4992276;28;20029;-76
2021/12/15 02:10:06;;;;;;;51.42;23.38;;;9.10;99.90;;;;;;5014874;28;20033;-76
2021/12/15 02:12:39;;;;;;;48.38;21.85;;;9.10;99.90;;;;;;5011794;28;20077;-78
2021/12/15 02:15:14;;;;;;;46.53;22.52;;;9.10;99.90;;;;;;5013015;28;20034;-76
2021/12/15 02:17:41;;;;;;;45.88;23.17;;;9.10;99.90;;;;;;5013784;28;20097;-75
2021/12/15 02:20:09;;;;;;;50.75;23.63;;;9.10;99.90;;;;;;5013583;28;20487;-76
2021/12/15 02:22:35;;;;;;;49.65;22.95;;;9.10;99.90;;;;;;4995538;28;20124;-78
2021/12/15 02:25:03;;;;;;;51.28;24.08;;;9.20;99.90;;;;;;5010127;28;20093;-75
2021/12/15 02:27:34;;;;;;;53.72;23.77;;;9.20;99.90;;;;;;4995419;28;20030;-76
2021/12/15 02:38:18;;;;;;;50.90;21.80;;;9.20;99.90;;;;;;5012812;28;20029;-77
2021/12/15 02:40:45;;;;;;;58.53;25.50;;;9.20;99.90;;;;;;5010194;28;20094;-77
2021/12/15 02:43:12;;;;;;;54.80;24.67;;;9.20;99.90;;;;;;5013601;28;20419;-77
2021/12/15 02:45:38;;;;;;;51.33;24.23;;;9.30;99.90;;;;;;4994166;28;20019;-75
2021/12/15 02:48:04;;;;;;;52.08;24.80;;;9.30;99.90;;;;;;5011314;28;20034;-76
2021/12/15 02:50:31;;;;;;;49.65;23.10;;;9.30;99.90;;;;;;5009136;28;20061;-77
2021/12/15 02:52:58;;;;;;;49.88;24.05;;;9.30;99.90;;;;;;5012486;28;20030;-77
2021/12/15 02:55:25;;;;;;;50.25;24.13;;;9.30;99.90;;;;;;5013028;28;20025;-77
2021/12/15 02:57:51;;;;;;;61.30;25.15;;;9.30;99.90;;;;;;5012424;28;20022;-77
2021/12/15 03:00:21;;;;;;;57.05;24.95;;;9.30;99.90;;;;;;5011905;28;20030;-77
2021/12/15 03:05:31;;;;;;;60.05;25.92;;;9.30;99.90;;;;;;4997265;28;20022;-77
2021/12/15 03:15:55;;;;;;;56.25;25.65;;;9.30;99.90;;;;;;5010404;28;20034;-76
2021/12/15 03:18:23;;;;;;;61.85;26.48;;;9.30;99.90;;;;;;5013374;28;20018;-74
2021/12/15 03:20:59;;;;;;;58.33;26.20;;;9.40;99.90;;;;;;5012702;28;20492;-75
2021/12/15 03:23:41;;;;;;;56.83;24.77;;;9.40;99.90;;;;;;5012715;28;20077;-76
2021/12/15 03:26:09;;;;;;;63.20;26.10;;;9.40;99.90;;;;;;4994249;28;20109;-75
2021/12/15 03:34:13;;;;;;;59.63;25.73;;;9.40;99.90;;;;;;5012784;28;20533;-75
2021/12/15 03:39:28;;;;;;;64.50;28.67;;;9.40;99.90;;;;;;5010268;28;20045;-75
2021/12/15 03:41:59;;;;;;;56.03;25.60;;;9.40;99.90;;;;;;5011574;28;20556;-75
2021/12/15 03:44:28;;;;;;;58.28;27.45;;;9.40;99.90;;;;;;5012904;28;20429;-75
2021/12/15 03:46:55;;;;;;;57.05;25.33;;;9.50;99.90;;;;;;5011466;28;20038;-75
2021/12/15 03:49:21;;;;;;;59.38;24.83;;;9.50;99.90;;;;;;5010128;28;20065;-75
2021/12/15 03:51:47;;;;;;;59.45;27.10;;;9.50;99.90;;;;;;5012284;28;20061;-75
2021/12/15 03:54:13;;;;;;;64.18;27.35;;;9.50;99.90;;;;;;4994178;28;20530;-75
2021/12/15 03:56:41;;;;;;;59.00;25.75;;;9.60;99.90;;;;;;4994818;28;20054;-76
2021/12/15 03:59:11;;;;;;;71.95;29.10;;;9.50;99.90;;;;;;5011027;28;20018;-75
2021/12/15 04:01:37;;;;;;;64.80;27.15;;;9.50;99.90;;;;;;4994904;28;20033;-75
2021/12/15 04:04:04;;;;;;;70.57;28.80;;;9.50;99.90;;;;;;5011573;28;20026;-75
2021/12/15 04:06:36;;;;;;;69.85;27.30;;;9.50;99.90;;;;;;4994382;28;20426;-75
2021/12/15 04:09:05;;;;;;;69.60;27.50;;;9.50;99.90;;;;;;5012250;28;20055;-75
2021/12/15 04:11:34;;;;;;;57.03;24.30;;;9.50;99.90;;;;;;5012204;28;20026;-75
2021/12/15 04:14:09;;;;;;;67.38;25.48;;;9.50;99.90;;;;;;5011727;28;20922;-75
2021/12/15 04:19:04;;;;;;;63.63;25.90;;;9.60;99.90;;;;;;5011835;28;20021;-75
2021/12/15 04:21:30;;;;;;;63.17;25.27;;;9.60;99.90;;;;;;4993475;28;20100;-74
2021/12/15 04:23:57;;;;;;;70.93;26.90;;;9.60;99.90;;;;;;5010818;28;20092;-75
2021/12/15 04:26:23;;;;;;;66.22;27.48;;;9.60;99.90;;;;;;5007143;28;20036;-75
2021/12/15 04:28:50;;;;;;;64.05;25.17;;;9.50;99.90;;;;;;5010686;28;20037;-75
2021/12/15 04:31:20;;;;;;;68.95;25.90;;;9.60;99.90;;;;;;5009351;28;20119;-76
2021/12/15 04:33:54;;;;;;;64.50;25.10;;;9.60;99.90;;;;;;5009633;28;20027;-74
2021/12/15 04:36:23;;;;;;;63.72;25.42;;;9.60;99.90;;;;;;5010830;28;20025;-76
2021/12/15 04:38:51;;;;;;;57.53;22.85;;;9.60;99.90;;;;;;5011483;28;20030;-75
2021/12/15 04:41:19;;;;;;;64.97;26.67;;;9.60;99.90;;;;;;5011187;28;20076;-75
2021/12/15 04:43:55;;;;;;;64.45;25.95;;;9.60;99.90;;;;;;4991134;28;20022;-75
2021/12/15 04:46:31;;;;;;;68.13;25.67;;;9.60;99.90;;;;;;5009755;28;20102;-75
2021/12/15 04:48:57;;;;;;;77.97;27.55;;;9.60;99.90;;;;;;5007919;28;20034;-75
2021/12/15 04:51:23;;;;;;;63.28;25.23;;;9.60;99.90;;;;;;5011236;28;20033;-75
2021/12/15 04:53:52;;;;;;;81.53;26.90;;;9.60;99.90;;;;;;4993902;28;20387;-75
2021/12/15 04:56:19;;;;;;;76.55;26.02;;;9.60;99.90;;;;;;4986513;28;20499;-74
2021/12/15 04:58:47;;;;;;;81.30;28.92;;;9.50;99.90;;;;;;4992052;28;20400;-76
2021/12/15 05:01:14;;;;;;;77.72;27.92;;;9.50;99.90;;;;;;5013335;28;20116;-75
2021/12/15 05:03:40;;;;;;;77.60;27.55;;;9.50;99.90;;;;;;5015001;28;20447;-76
2021/12/15 05:06:07;;;;;;;82.82;28.52;;;9.50;99.90;;;;;;5015359;28;20033;-75
2021/12/15 05:08:35;;;;;;;75.15;26.90;;;9.60;99.90;;;;;;5014711;28;20030;-75
2021/12/15 05:11:02;;;;;;;65.10;25.25;;;9.60;99.90;;;;;;5015937;28;20395;-75
2021/12/15 05:13:28;;;;;;;78.38;26.55;;;9.60;99.90;;;;;;5015352;28;20503;-76
2021/12/15 05:15:54;;;;;;;76.78;27.85;;;9.60;99.90;;;;;;5014529;28;20030;-76
2021/12/15 05:18:21;;;;;;;72.18;25.38;;;9.60;99.90;;;;;;5015193;28;20018;-75
2021/12/15 05:20:51;;;;;;;85.95;29.15;;;9.60;99.90;;;;;;4997585;28;20029;-75
2021/12/15 05:23:18;;;;;;;88.50;28.33;;;9.60;99.90;;;;;;5015000;28;20522;-73
2021/12/15 05:25:45;;;;;;;99.13;30.48;;;9.60;99.90;;;;;;5014360;28;20587;-75
2021/12/15 05:28:12;;;;;;;79.25;26.83;;;9.60;99.90;;;;;;5014878;28;20030;-74
2021/12/15 05:30:39;;;;;;;79.40;27.67;;;9.60;99.90;;;;;;4995385;28;20030;-73
2021/12/15 05:33:05;;;;;;;94.72;29.95;;;9.60;99.90;;;;;;5014696;28;20026;-76
2021/12/15 05:35:33;;;;;;;97.68;30.67;;;9.60;99.90;;;;;;5013544;28;20030;-75
2021/12/15 05:38:01;;;;;;;104.32;31.65;;;9.60;99.90;;;;;;5014955;28;20018;-75
2021/12/15 05:40:30;;;;;;;96.40;30.15;;;9.60;99.90;;;;;;5011908;28;20061;-74
2021/12/15 05:42:56;;;;;;;90.50;30.27;;;9.70;99.90;;;;;;5014578;28;20457;-74
2021/12/15 05:45:24;;;;;;;89.13;31.25;;;9.70;99.90;;;;;;5014758;28;20100;-74
2021/12/15 05:47:51;;;;;;;106.75;31.98;;;9.70;99.90;;;;;;5014238;28;20057;-75
2021/12/15 05:50:18;;;;;;;93.82;30.48;;;9.70;99.90;;;;;;5014172;28;20053;-73
2021/12/15 05:52:44;;;;;;;128.88;36.45;;;9.70;99.90;;;;;;5014047;28;20057;-74
2021/12/15 05:55:13;;;;;;;101.30;32.45;;;9.70;99.90;;;;;;4991582;28;20053;-74
2021/12/15 05:57:40;;;;;;;107.65;32.90;;;9.70;99.90;;;;;;5013790;28;20029;-73
2021/12/15 06:00:13;;;;;;;108.78;33.53;;;9.70;99.90;;;;;;5007534;28;20029;-75
2021/12/15 06:02:41;;;;;;;94.00;32.17;;;9.70;99.90;;;;;;5017475;28;20080;-74
2021/12/15 06:05:09;;;;;;;105.15;34.55;;;9.80;99.90;;;;;;5009754;28;20028;-74
2021/12/15 06:07:35;;;;;;;105.18;33.55;;;9.80;99.90;;;;;;5016309;28;21599;-75
2021/12/15 06:10:05;;;;;;;117.10;35.30;;;9.70;99.90;;;;;;5014426;28;20058;-76
2021/12/15 06:12:31;;;;;;;101.45;32.40;;;9.70;99.90;;;;;;5013589;28;20022;-76
2021/12/15 06:14:57;;;;;;;93.15;31.33;;;9.70;99.90;;;;;;5010883;28;20041;-76
2021/12/15 06:17:25;;;;;;;102.43;33.30;;;9.70;99.90;;;;;;4994370;28;20449;-76
2021/12/15 06:19:53;;;;;;;113.20;34.47;;;9.80;99.90;;;;;;4980327;28;20030;-76
2021/12/15 06:22:25;;;;;;;90.57;32.70;;;9.80;99.90;;;;;;5013749;28;20020;-76
2021/12/15 06:24:55;;;;;;;115.13;33.58;;;9.80;99.90;;;;;;4976604;28;20041;-76
2021/12/15 06:27:22;;;;;;;109.18;35.20;;;9.80;99.90;;;;;;4996627;28;20030;-76
2021/12/15 06:29:50;;;;;;;104.43;34.63;;;9.80;99.90;;;;;;4996152;28;20022;-75
2021/12/15 06:32:16;;;;;;;101.68;33.47;;;9.80;99.90;;;;;;5013080;28;20034;-78
2021/12/15 06:34:43;;;;;;;115.85;35.92;;;9.80;99.90;;;;;;5012203;28;20025;-76
2021/12/15 06:37:10;;;;;;;111.97;37.42;;;9.90;99.90;;;;;;5013187;28;20034;-78
2021/12/15 06:39:36;;;;;;;99.35;35.67;;;9.90;99.90;;;;;;4995833;28;20029;-75
2021/12/15 06:42:03;;;;;;;107.82;36.88;;;9.90;99.90;;;;;;5011519;28;20033;-77
2021/12/15 06:44:29;;;;;;;113.97;38.97;;;9.80;99.90;;;;;;4979023;28;20048;-76
2021/12/15 07:00:34;;;;;;;95.75;35.13;;;9.90;99.90;;;;;;5013889;28;20361;-77
2021/12/15 07:03:01;;;;;;;108.25;37.78;;;9.90;99.90;;;;;;5013448;28;20039;-75
2021/12/15 07:05:28;;;;;;;100.70;37.92;;;9.90;99.90;;;;;;5010976;28;20120;-75
2021/12/15 07:07:56;;;;;;;98.82;36.83;;;9.90;99.90;;;;;;4996115;28;20025;-76
2021/12/15 07:10:27;;;;;;;103.90;38.13;;;9.90;99.90;;;;;;5010118;28;20026;-76
2021/12/15 07:12:53;;;;;;;104.20;37.60;;;10.00;99.90;;;;;;5010926;28;20030;-77
2021/12/15 07:15:19;;;;;;;96.57;36.80;;;10.00;99.90;;;;;;4976128;28;20030;-72
2021/12/15 07:17:49;;;;;;;97.20;37.42;;;10.00;99.90;;;;;;5012312;28;20026;-71
2021/12/15 07:23:03;;;;;;;90.65;34.50;;;10.10;99.90;;;;;;5011644;28;20105;-73
2021/12/15 07:25:30;;;;;;;88.28;34.10;;;10.00;99.90;;;;;;5010404;28;20049;-72
2021/12/15 07:27:56;;;;;;;89.43;35.25;;;10.10;99.90;;;;;;5008992;28;20491;-74
2021/12/15 07:30:22;;;;;;;91.78;36.35;;;10.10;99.90;;;;;;5009728;28;20553;-76
2021/12/15 07:32:49;;;;;;;94.13;37.20;;;10.10;99.90;;;;;;4994992;28;20105;-75
2021/12/15 07:35:18;;;;;;;88.65;34.38;;;10.10;99.90;;;;;;5011364;28;20068;-74
2021/12/15 07:37:45;;;;;;;81.32;32.10;;;10.10;99.90;;;;;;5011770;28;20026;-75
2021/12/15 07:40:19;;;;;;;81.47;34.33;;;10.10;99.90;;;;;;5012495;28;20022;-74
2021/12/15 07:43:04;;;;;;;79.30;34.47;;;10.10;99.90;;;;;;4992785;28;20018;-75
2021/12/15 07:45:33;;;;;;;75.72;31.23;;;10.10;99.90;;;;;;5008044;28;20022;-75
2021/12/15 07:48:01;;;;;;;72.68;30.88;;;10.10;99.90;;;;;;5007953;28;20030;-74
2021/12/15 07:50:29;;;;;;;74.68;31.45;;;10.10;99.90;;;;;;4992473;28;20304;-74
2021/12/15 07:52:56;;;;;;;65.00;29.23;;;10.10;99.90;;;;;;5006293;28;20021;-76
2021/12/15 07:55:22;;;;;;;69.13;29.33;;;10.10;99.90;;;;;;5007906;28;20435;-75
2021/12/15 07:57:49;;;;;;;60.83;27.63;;;10.10;99.90;;;;;;5007417;28;20379;-75
2021/12/15 08:00:16;;;;;;;64.70;28.92;;;10.20;99.90;;;;;;4990468;28;20048;-74
2021/12/15 08:02:43;;;;;;;65.47;28.42;;;10.20;99.90;;;;;;5007301;28;20543;-77
2021/12/15 08:05:09;;;;;;;61.17;27.58;;;10.20;99.90;;;;;;4989627;28;20034;-74
2021/12/15 08:07:35;;;;;;;65.00;28.42;;;10.20;99.90;;;;;;4990628;28;20037;-76
2021/12/15 08:10:05;;;;;;;55.15;25.73;;;10.20;99.90;;;;;;5009124;28;20044;-74
2021/12/15 08:12:31;;;;;;;60.35;25.80;;;10.20;99.90;;;;;;5008482;28;20026;-75
2021/12/15 08:14:57;;;;;;;57.25;25.90;;;10.20;99.90;;;;;;5004750;28;20152;-75
2021/12/15 08:17:23;;;;;;;61.55;28.10;;;10.20;99.90;;;;;;5008348;28;20022;-76
2021/12/15 08:19:49;;;;;;;61.80;27.80;;;10.20;99.90;;;;;;5015847;28;20026;-75
2021/12/15 08:22:15;;;;;;;57.58;27.38;;;10.20;99.90;;;;;;5010831;28;20037;-76
2021/12/15 08:24:41;;;;;;;53.00;25.25;;;10.20;99.90;;;;;;5007187;28;20431;-77
2021/12/15 08:27:07;;;;;;;59.13;28.58;;;10.30;99.90;;;;;;5006802;28;20033;-75
2021/12/15 08:29:33;;;;;;;61.30;27.80;;;10.30;99.90;;;;;;5006885;28;20115;-78
2021/12/15 08:31:59;;;;;;;58.05;27.15;;;10.20;99.90;;;;;;5006408;28;20469;-75
2021/12/15 08:34:25;;;;;;;56.60;28.00;;;10.30;99.90;;;;;;5007474;28;20056;-77
2021/12/15 08:36:54;;;;;;;60.25;29.77;;;10.20;99.90;;;;;;4990292;28;20026;-75
2021/12/15 08:39:21;;;;;;;58.92;27.40;;;10.30;99.90;;;;;;5007567;28;20518;-74
2021/12/15 08:41:48;;;;;;;55.60;26.73;;;10.20;99.90;;;;;;5010868;28;20025;-74
2021/12/15 08:44:13;;;;;;;62.92;29.52;;;10.30;99.90;;;;;;4993686;28;20036;-76
2021/12/15 08:46:44;;;;;;;57.97;30.27;;;10.20;99.90;;;;;;5010296;28;20030;-77
2021/12/15 08:49:13;;;;;;;55.72;27.73;;;10.30;99.90;;;;;;5011062;28;20018;-75
2021/12/15 08:51:39;;;;;;;58.25;27.95;;;10.30;99.90;;;;;;5010064;28;20114;-74
2021/12/15 08:54:08;;;;;;;54.58;26.75;;;10.30;99.90;;;;;;5010001;28;20057;-73
2021/12/15 08:56:35;;;;;;;56.55;28.55;;;10.30;99.90;;;;;;5007422;28;20037;-74
2021/12/15 08:59:05;;;;;;;55.55;27.58;;;10.30;99.90;;;;;;5014806;28;20061;-73
2021/12/15 09:01:31;;;;;;;67.28;29.63;;;10.30;99.90;;;;;;5013465;28;20530;-74
2021/12/15 09:03:57;;;;;;;52.13;27.17;;;10.30;99.90;;;;;;5012689;28;20079;-73
2021/12/15 09:06:23;;;;;;;53.45;25.83;;;10.30;99.90;;;;;;4993949;28;20037;-73
2021/12/15 09:08:50;;;;;;;52.13;26.52;;;10.30;99.90;;;;;;5012617;28;20100;-74
2021/12/15 09:11:21;;;;;;;63.50;29.88;;;10.30;99.90;;;;;;5011041;28;20165;-73
2021/12/15 09:13:50;;;;;;;56.92;28.38;;;10.40;99.90;;;;;;4990822;28;20085;-74
2021/12/15 09:16:16;;;;;;;55.45;26.42;;;10.40;99.90;;;;;;5007927;28;20036;-74
2021/12/15 09:18:44;;;;;;;59.05;29.30;;;10.40;99.90;;;;;;5005589;28;20036;-74
2021/12/15 09:21:13;;;;;;;53.78;26.33;;;10.40;99.90;;;;;;5005661;28;20029;-75
2021/12/15 09:23:39;;;;;;;63.58;28.88;;;10.30;99.90;;;;;;5006260;28;20096;-76
2021/12/15 09:26:06;;;;;;;52.40;26.35;;;10.30;99.90;;;;;;5004642;28;20022;-75
2021/12/15 09:28:34;;;;;;;62.50;30.65;;;10.30;99.90;;;;;;5004453;28;20095;-76
2021/12/15 09:31:02;;;;;;;57.45;28.65;;;10.30;99.90;;;;;;5005992;28;20068;-76
2021/12/15 09:33:31;;;;;;;55.60;27.13;;;10.30;99.90;;;;;;5012575;28;20099;-76
2021/12/15 09:35:58;;;;;;;58.05;28.08;;;10.40;99.90;;;;;;5007676;28;20065;-76
2021/12/15 09:38:25;;;;;;;55.60;29.58;;;10.40;99.90;;;;;;4991441;28;20029;-76
2021/12/15 09:40:55;;;;;;;59.60;29.38;;;10.40;99.90;;;;;;5007471;28;20022;-76
2021/12/15 09:43:21;;;;;;;62.22;30.13;;;10.40;99.90;;;;;;5011274;28;20061;-76
2021/12/15 10:07:17;;;;;;;59.75;27.73;;;10.40;99.90;;;;;;5009815;28;20450;-76
2021/12/15 10:18:08;;;;;;;;;;;10.40;99.90;;;;;;4994536;28;20026;-75
2021/12/15 10:20:37;;;;;;;60.70;28.60;;;10.40;99.90;;;;;;5010419;28;19963;-75
2021/12/15 10:23:06;;;;;;;58.13;28.83;;;10.40;99.90;;;;;;5010739;28;20026;-76
2021/12/15 10:25:37;;;;;;;55.25;28.08;;;10.50;99.90;;;;;;5009856;28;20125;-75
2021/12/15 10:28:14;;;;;;;61.58;29.35;;;10.50;99.90;;;;;;5010545;28;20467;-76
2021/12/15 10:30:48;;;;;;;59.05;30.45;;;10.50;99.90;;;;;;5011452;28;20030;-75
2021/12/15 10:33:18;;;;;;;61.20;28.05;;;10.50;99.90;;;;;;4991995;28;20296;-76
2021/12/15 10:36:15;;;;;;;65.53;31.25;;;10.50;99.90;;;;;;5013788;28;20044;-74
2021/12/15 10:38:45;;;;;;;66.18;31.80;;;10.60;99.90;;;;;;4993878;28;20062;-76
2021/12/15 10:41:17;;;;;;;58.58;29.33;;;10.60;99.90;;;;;;5010308;28;20026;-76
2021/12/15 10:43:48;;;;;;;57.63;27.77;;;10.50;99.90;;;;;;5005971;28;20408;-75
2021/12/15 10:46:21;;;;;;;65.43;30.50;;;10.60;99.90;;;;;;5009144;28;20038;-76
2021/12/15 10:48:53;;;;;;;68.07;34.03;;;10.60;99.90;;;;;;5008706;28;20304;-76
2021/12/15 10:51:44;;;;;;;60.63;30.67;;;10.60;99.90;;;;;;4989633;28;20056;-76
2021/12/15 10:54:23;;;;;;;61.90;29.00;;;10.60;99.90;;;;;;5010547;28;20026;-77
2021/12/15 10:56:54;;;;;;;62.47;29.02;;;10.70;99.90;;;;;;5001665;28;20508;-77
2021/12/15 10:59:22;;;;;;;60.67;29.23;;;10.60;99.90;;;;;;5008273;28;20026;-76
2021/12/15 11:01:47;;;;;;;60.25;29.45;;;10.60;99.90;;;;;;5008400;28;20056;-76
2021/12/15 11:04:30;;;;;;;61.35;28.83;;;10.60;99.90;;;;;;5010910;28;20026;-76
2021/12/15 11:07:14;;;;;;;58.20;28.52;;;10.60;99.90;;;;;;4994810;28;20026;-75
2021/12/15 11:09:54;;;;;;;65.30;30.88;;;10.60;99.90;;;;;;4993854;28;20504;-75
2021/12/15 11:12:40;;;;;;;64.63;30.25;;;10.60;99.90;;;;;;4990722;28;20029;-75
2021/12/15 11:15:11;;;;;;;61.88;29.48;;;10.60;99.90;;;;;;5008886;28;20053;-75
2021/12/15 11:17:53;;;;;;;60.30;29.17;;;10.60;99.90;;;;;;4993211;28;20139;-75
2021/12/15 11:20:27;;;;;;;65.60;30.75;;;10.60;99.90;;;;;;5011178;28;20040;-76
2021/12/15 11:22:58;;;;;;;60.55;29.33;;;10.60;99.90;;;;;;5008997;28;20080;-75
2021/12/15 11:25:42;;;;;;;63.28;30.48;;;10.60;99.90;;;;;;5009215;28;20026;-77
2021/12/15 11:28:14;;;;;;;63.60;29.70;;;10.60;99.90;;;;;;5009563;28;20240;-77
2021/12/15 11:30:56;;;;;;;67.03;31.30;;;10.70;99.90;;;;;;5008958;28;20410;-75
2021/12/15 11:33:24;;;;;;;61.65;29.52;;;10.70;99.90;;;;;;4994383;28;20065;-75
2021/12/15 11:36:01;;;;;;;62.65;28.85;;;10.70;99.90;;;;;;5013442;28;20029;-76
2021/12/15 11:38:29;;;;;;;63.33;30.50;;;10.70;99.90;;;;;;5012093;28;20105;-75
2021/12/15 11:40:58;;;;;;;62.95;28.92;;;10.70;99.90;;;;;;5015592;28;20076;-77
2021/12/15 11:43:44;;;;;;;71.03;32.45;;;10.70;99.90;;;;;;5016128;28;20029;-75
2021/12/15 11:46:15;;;;;;;58.30;28.30;;;10.60;99.90;;;;;;4980627;28;20030;-75
2021/12/15 11:48:41;;;;;;;60.53;29.77;;;10.70;99.90;;;;;;4995431;28;20030;-76
2021/12/15 11:51:08;;;;;;;67.70;31.05;;;10.70;99.90;;;;;;5007926;28;20870;-74
2021/12/15 11:53:46;;;;;;;62.35;29.52;;;10.70;99.90;;;;;;5009134;28;20041;-74
2021/12/15 11:56:21;;;;;;;68.07;30.83;;;10.60;99.90;;;;;;5003066;28;20050;-73
2021/12/15 11:58:51;;;;;;;67.90;31.15;;;10.60;99.90;;;;;;4999918;28;20045;-73
2021/12/15 12:01:41;;;;;;;64.50;30.35;;;10.60;99.90;;;;;;5002638;28;20026;-74
2021/12/15 12:04:15;;;;;;;66.65;30.45;;;10.70;99.90;;;;;;5007285;28;20101;-75
2021/12/15 12:06:42;;;;;;;62.97;30.00;;;10.70;99.90;;;;;;4999835;28;20636;-75
2021/12/15 12:09:07;;;;;;;56.17;28.48;;;10.70;99.90;;;;;;5008153;28;20033;-75
2021/12/15 12:11:39;;;;;;;64.45;31.80;;;10.70;99.90;;;;;;5008865;28;20033;-75
2021/12/15 12:14:07;;;;;;;67.07;30.73;;;10.70;99.90;;;;;;5006397;28;20156;-76
2021/12/15 12:16:33;;;;;;;60.60;28.05;;;10.70;99.90;;;;;;5006921;28;20026;-75
2021/12/15 12:18:59;;;;;;;55.15;28.20;;;10.70;99.90;;;;;;4991678;28;20369;-75
2021/12/15 12:21:25;;;;;;;65.68;30.60;;;10.70;99.90;;;;;;4989248;28;20018;-76
2021/12/15 12:23:52;;;;;;;57.85;29.20;;;10.70;99.90;;;;;;5008715;28;20029;-75
2021/12/15 12:26:26;;;;;;;63.75;30.67;;;10.80;99.90;;;;;;5007909;28;20033;-76
2021/12/15 12:28:53;;;;;;;59.50;27.90;;;10.70;99.90;;;;;;5009083;28;20079;-75
2021/12/15 12:31:22;;;;;;;67.35;29.05;;;10.70;99.90;;;;;;5006837;28;20033;-75
2021/12/15 12:33:49;;;;;;;57.92;28.05;;;10.70;99.90;;;;;;5006925;28;20092;-75
2021/12/15 12:36:27;;;;;;;61.45;30.15;;;10.70;99.90;;;;;;5005182;28;20029;-75
2021/12/15 12:39:06;;;;;;;61.08;28.92;;;10.70;99.90;;;;;;5007377;28;20033;-75
2021/12/15 12:41:58;;;;;;;53.38;26.35;;;10.70;99.90;;;;;;5006543;28;20060;-75
2021/12/15 12:44:31;;;;;;;60.30;28.02;;;10.80;99.90;;;;;;4971335;28;20416;-76
2021/12/15 12:47:04;;;;;;;55.70;27.17;;;10.80;99.90;;;;;;4957210;28;20038;-76
2021/12/15 13:01:07;;;;;;;59.30;26.35;;;10.70;99.90;;;;;;4967087;28;20117;-75
2021/12/15 13:03:45;;;;;;;50.80;26.73;;;10.60;99.90;;;;;;4969771;28;20033;-76
2021/12/15 13:06:16;;;;;;;58.40;28.90;;;10.60;99.90;;;;;;4970266;28;20500;-76
2021/12/15 13:08:46;;;;;;;50.75;24.60;;;10.60;99.90;;;;;;4974020;28;20044;-75
2021/12/15 13:11:18;;;;;;;51.30;24.83;;;10.60;99.90;;;;;;4973128;28;20504;-76
2021/12/15 13:14:04;;;;;;;49.25;24.05;;;10.60;99.90;;;;;;4974672;28;20106;-76
2021/12/15 13:16:56;;;;;;;52.72;26.58;;;10.60;99.90;;;;;;4970929;28;20109;-76
2021/12/15 13:19:42;;;;;;;53.50;24.77;;;10.60;99.90;;;;;;4973591;28;20097;-75
2021/12/15 13:22:40;;;;;;;54.13;25.60;;;10.60;99.90;;;;;;4986201;28;20176;-76
2021/12/15 13:31:28;;;;;;;53.67;26.83;;;10.60;99.90;;;;;;4931739;29;20094;-76
2021/12/15 13:33:57;;;;;;;50.40;25.50;;;10.60;99.90;;;;;;4931235;29;20032;-76
2021/12/15 13:36:25;;;;;;;53.50;25.42;;;10.60;99.90;;;;;;4915307;29;20035;-76
2021/12/15 13:39:10;;;;;;;45.83;23.23;;;10.60;99.90;;;;;;4933100;29;20055;-75
2021/12/15 13:44:35;;;;;;;52.95;25.17;;;10.60;99.90;;;;;;4931075;29;20504;-75
2021/12/15 13:47:20;;;;;;;51.95;25.75;;;10.60;99.90;;;;;;4931141;29;20091;-75
2021/12/15 13:50:00;;;;;;;44.78;24.30;;;10.60;99.90;;;;;;4932311;29;20489;-75
2021/12/15 13:52:39;;;;;;;50.80;23.95;;;10.60;99.90;;;;;;4930938;29;20996;-75
2021/12/15 13:55:32;;;;;;;48.65;24.48;;;10.60;99.90;;;;;;4930515;29;20039;-75
2021/12/15 13:57:58;;;;;;;48.08;24.33;;;10.60;99.90;;;;;;4929354;29;20482;-75
2021/12/15 14:00:34;;;;;;;47.08;23.33;;;10.60;99.90;;;;;;4931968;29;20046;-75
2021/12/15 14:03:12;;;;;;;41.90;22.60;;;10.50;99.90;;;;;;4992419;28;20045;-75
2021/12/15 14:05:53;;;;;;;48.58;25.05;;;10.50;99.90;;;;;;5007198;28;20581;-75
2021/12/15 14:08:36;;;;;;;42.92;21.75;;;10.50;99.90;;;;;;5010407;28;20034;-76
2021/12/15 14:11:31;;;;;;;47.15;24.23;;;10.50;99.90;;;;;;5010099;28;20165;-75
2021/12/15 14:14:05;;;;;;;45.13;21.65;;;10.50;99.90;;;;;;5010339;28;20030;-76
2021/12/15 14:16:57;;;;;;;214.85;91.47;;;10.50;99.90;;;;;;5009353;28;20032;-75
2021/12/15 14:19:32;;;;;;;99.68;50.58;;;10.40;99.90;;;;;;5009695;28;20021;-76
2021/12/15 14:22:02;;;;;;;121.32;62.60;;;10.40;99.90;;;;;;4992613;28;20030;-74
2021/12/15 14:24:29;;;;;;;95.65;54.90;;;10.40;99.90;;;;;;5005977;28;20438;-75
2021/12/15 14:26:55;;;;;;;61.08;35.15;;;10.40;99.90;;;;;;4989378;28;20037;-75
2021/12/15 14:29:27;;;;;;;44.63;22.58;;;10.50;99.90;;;;;;5007978;28;20037;-75
2021/12/15 14:31:55;;;;;;;40.72;20.02;;;10.50;99.90;;;;;;5008009;28;20038;-75
2021/12/15 14:34:24;;;;;;;35.65;18.60;;;10.40;99.90;;;;;;4990934;28;20041;-75
2021/12/15 14:36:53;;;;;;;36.70;18.58;;;10.40;99.90;;;;;;5010619;28;20029;-75